Toronto, Ohio
Current Conditions -  °F | °C
As of 8:53 AM on Thursday 30 Oct 2014 (Local Time) from KHLG Reporting Station
Scattered Clouds Scattered Clouds  
Wind Chill: 33°   Ceiling: Unl
Heat Index: 37°   Visibility: 8mi
Dew Point: 34°   Wind: 5mph
Humidity: 89%   Direction: 280°W
Pressure: 30.12"   Gusts: NA
Location:  40.46°N, 80.61°W
Report Text: KHLG 301253Z 28004KT 8SM SCT034 03/01 A3012 RMK AO2 SLP209 T00280011
Loading
Personal Weather Stations






























Interactive Weather Map New forecast layout! Learn more

10-Day Weather Forecast

Advertisements
Track Severe Weather on mobile